Terminal Aerodrome Forecast
Issued by NWS Jacksonville, FL

Home | Current Version | Previous Version | Text Only | Print | Product List | Glossary On
Versions: 1 2 3 4 5 6 7 8 9 10 11 12 13 14 15 16 17 18 19 20 21 22 23 24 25
000
FTUS42 KJAX 281720
TAFGNV
TAF
KGNV 281720Z 2818/0118 02010G18KT 4SM -RA BR BKN012 OVC020
      TEMPO 2818/2822 2SM RA BR OVC008
     FM010000 01008KT 5SM -RA BR SCT004 BKN007 OVC015
     FM010600 04005KT 3SM -DZ BR OVC005
     FM011400 07007KT 5SM BR VCSH OVC004=

USA.gov is the U.S. government's official web portal to all federal, state and local government web resources and services.